KHNB

Details ICAO KHNB
Name HUNTINGBURG
Region United States
Timezone America/Indiana/Vincennes (UTC-4.0)
Plans Departing 0
Arriving 5
Stats Elevation 529 ft / 161 m (AMSL)
Location 38.249028° -86.953704°
Runways 1
Magnetic Variation 3.953° W
Sunrise 2018-05-27 10:29:57 UTC / 2018-05-27 06:29:57 Local
Sunset 2018-05-28 01:02:56 UTC / 2018-05-27 21:02:56 Local
Advertisement - Login to hide

Runways

ID Width Length Bearing (true) Bearing (mag) Surface Threshold Offset Overrun Length
09 75 ft / 23 m 4,989 ft / 1,521 m 90.65° 94.60° Asphalt 0 ft / 0 m 0 ft / 0 m
27 75 ft / 23 m 4,989 ft / 1,521 m 270.66° 274.61° Asphalt 0 ft / 0 m 0 ft / 0 m

Map

Weather


0- 5 10 15 20 25 30 35+ Temperature / ° C

Clouds and Precipitation
Forecast for 2018-05-27 12:00 UTC. Updated 5 hours ago

Ground ~20,000 ft ~40,000 ft Winds

METAR

KHNB 271556Z AUTO VRB04KT 10SM CLR 29/22 A2994 RMK AO2 SLP133 T02890217

TAF

KHNB 271120Z 2712/2812 VRB05KT P6SM FEW045 BKN150 FM280700 00000KT 5SM BR FEW250

Frequencies

Recorded 118.25 MHz AWOS 3
Clearance 118.80 MHz CLNC DEL
Unicom 122.80 MHz CTAF/UNICOM
Approach 126.40 MHz EVANSVILLE APP/DEP
Warning: Do not use this data for real-world aviation or navigation. No guarantee of current accuracy is given.